Time;durP1;ratioP1;P1;durP2;ratioP2;P2;SDS_P1;SDS_P2;PMS_P1;PMS_P2;Temp;Humidity;BMP_temperature;BMP_pressure;BME280_temperature;BME280_humidity;BME280_pressure;Samples;Min_cycle;Max_cycle;Signal;HPM_P1;HPM_P2
2022/12/04 00:01:18;;;;;;;43.90;20.55;;;1.00;99.90;;;;;;4940788;29;20066;-77
2022/12/04 00:03:44;;;;;;;44.55;20.38;;;0.90;99.90;;;;;;4909767;29;20036;-79
2022/12/04 00:06:14;;;;;;;53.90;24.48;;;0.90;99.90;;;;;;4928619;29;20524;-78
2022/12/04 00:08:40;;;;;;;50.22;21.85;;;0.90;99.90;;;;;;4926367;29;20051;-78
2022/12/04 00:11:06;;;;;;;50.83;20.35;;;0.90;99.90;;;;;;4925446;28;20035;-78
2022/12/04 00:13:32;;;;;;;45.75;21.45;;;0.90;99.90;;;;;;4925084;29;20036;-79
2022/12/04 00:15:58;;;;;;;45.45;21.85;;;0.90;99.90;;;;;;4942240;29;20577;-78
2022/12/04 00:18:24;;;;;;;51.35;23.40;;;1.00;99.90;;;;;;4942416;28;20038;-79
2022/12/04 00:20:49;;;;;;;45.35;22.30;;;0.90;99.90;;;;;;4925160;29;20035;-79
2022/12/04 00:23:15;;;;;;;44.85;21.50;;;0.90;99.90;;;;;;4927038;29;20082;-78
2022/12/04 00:25:40;;;;;;;52.30;26.13;;;1.00;99.90;;;;;;4893436;29;20039;-79
2022/12/04 00:28:06;;;;;;;48.08;22.35;;;1.00;99.90;;;;;;4942357;28;20435;-78
2022/12/04 00:30:31;;;;;;;43.78;21.98;;;1.00;99.90;;;;;;4928925;28;20555;-78
2022/12/04 00:32:57;;;;;;;47.75;22.88;;;1.00;99.90;;;;;;4931819;28;20089;-78
2022/12/04 00:35:22;;;;;;;41.08;19.08;;;1.00;99.90;;;;;;4928964;29;20028;-79
2022/12/04 00:37:48;;;;;;;48.17;22.38;;;1.00;99.90;;;;;;4926502;29;20032;-79
2022/12/04 00:40:13;;;;;;;47.80;22.20;;;1.00;99.90;;;;;;4921299;29;20039;-79
2022/12/04 00:42:39;;;;;;;47.38;20.55;;;1.00;99.90;;;;;;4914503;29;20032;-79
2022/12/04 00:45:05;;;;;;;47.78;22.58;;;1.00;99.90;;;;;;4949597;28;20032;-79
2022/12/04 00:47:31;;;;;;;49.95;22.85;;;1.00;99.90;;;;;;4914714;29;20028;-78
2022/12/04 00:49:56;;;;;;;48.60;24.40;;;1.00;99.90;;;;;;4946154;28;20503;-78
2022/12/04 00:52:22;;;;;;;45.97;23.15;;;1.00;99.90;;;;;;4925389;29;20032;-79
2022/12/04 00:54:47;;;;;;;48.38;21.95;;;0.90;99.90;;;;;;4932055;29;20032;-78
2022/12/04 00:57:13;;;;;;;48.30;22.92;;;1.00;99.90;;;;;;4930389;29;20043;-79
2022/12/04 00:59:38;;;;;;;47.45;22.50;;;1.00;99.90;;;;;;4915175;29;20028;-79
2022/12/04 01:02:04;;;;;;;44.15;21.67;;;1.00;99.90;;;;;;4916471;29;20043;-79
2022/12/04 01:04:29;;;;;;;56.88;24.30;;;1.00;99.90;;;;;;4922401;29;20040;-78
2022/12/04 01:06:55;;;;;;;50.72;23.60;;;1.00;99.90;;;;;;4943130;29;20035;-79
2022/12/04 01:09:20;;;;;;;51.17;23.17;;;1.00;99.90;;;;;;4897783;29;20502;-78
2022/12/04 01:11:46;;;;;;;46.50;21.95;;;1.00;99.90;;;;;;4928116;29;20047;-78
2022/12/04 01:14:11;;;;;;;47.75;21.02;;;0.90;99.90;;;;;;4923311;29;20032;-78
2022/12/04 01:16:38;;;;;;;51.13;21.67;;;1.00;99.90;;;;;;4914648;29;20392;-78
2022/12/04 01:19:04;;;;;;;43.85;19.27;;;1.00;99.90;;;;;;4914232;29;20028;-78
2022/12/04 01:21:30;;;;;;;45.22;21.55;;;1.00;99.90;;;;;;4923958;29;20052;-78
2022/12/04 01:23:56;;;;;;;41.45;19.92;;;0.90;99.90;;;;;;4912932;29;20055;-79
2022/12/04 01:26:21;;;;;;;42.13;20.58;;;0.90;99.90;;;;;;4923259;29;20043;-79
2022/12/04 01:28:47;;;;;;;42.75;20.98;;;0.90;99.90;;;;;;4929877;29;20060;-77
2022/12/04 01:31:14;;;;;;;40.00;18.33;;;1.00;99.90;;;;;;4945001;28;20391;-79
2022/12/04 01:33:40;;;;;;;45.13;21.95;;;0.90;99.90;;;;;;4912227;29;20048;-78
2022/12/04 01:36:07;;;;;;;39.75;20.38;;;0.90;99.90;;;;;;4927903;29;20103;-79
2022/12/04 01:38:33;;;;;;;42.60;20.23;;;0.90;99.90;;;;;;4912764;29;20111;-78
2022/12/04 01:40:59;;;;;;;43.85;21.08;;;0.90;99.90;;;;;;4944300;28;20044;-79
2022/12/04 01:43:25;;;;;;;41.10;19.10;;;0.90;99.90;;;;;;4925660;29;20041;-78
2022/12/04 01:45:55;;;;;;;35.90;17.23;;;0.90;99.90;;;;;;4927980;29;20098;-78
2022/12/04 01:48:25;;;;;;;43.58;20.98;;;1.00;99.90;;;;;;4944294;29;20031;-78
2022/12/04 01:50:52;;;;;;;40.90;20.15;;;1.00;99.90;;;;;;4929340;29;20043;-79
2022/12/04 01:53:18;;;;;;;42.15;19.67;;;0.90;99.90;;;;;;4914393;29;20050;-78
2022/12/04 01:55:43;;;;;;;41.85;19.77;;;0.90;99.90;;;;;;4926766;29;20492;-79
2022/12/04 01:58:09;;;;;;;43.95;19.00;;;0.90;99.90;;;;;;4926196;29;20032;-79
2022/12/04 02:00:35;;;;;;;40.22;19.83;;;0.90;99.90;;;;;;4928080;29;20060;-79
2022/12/04 02:03:00;;;;;;;42.08;20.80;;;0.90;99.90;;;;;;4945584;29;20028;-78
2022/12/04 02:05:26;;;;;;;49.70;23.48;;;0.90;99.90;;;;;;4927373;29;20091;-78
2022/12/04 02:07:52;;;;;;;40.88;19.58;;;0.90;99.90;;;;;;4834871;29;2702416;-78
2022/12/04 02:10:23;;;;;;;39.85;19.60;;;0.90;99.90;;;;;;4913664;29;20032;-78
2022/12/04 02:13:10;;;;;;;44.92;20.27;;;0.90;99.90;;;;;;4926271;29;20090;-79
2022/12/04 02:15:53;;;;;;;42.20;20.48;;;0.90;99.90;;;;;;4930777;29;20031;-78
2022/12/04 02:18:28;;;;;;;40.80;20.73;;;0.90;99.90;;;;;;4944961;28;20118;-78
2022/12/04 02:21:29;;;;;;;46.75;21.48;;;0.90;99.90;;;;;;4913589;29;20649;-78
2022/12/04 02:24:27;;;;;;;40.03;20.08;;;0.80;99.90;;;;;;4929220;29;20550;-78
2022/12/04 02:27:02;;;;;;;42.95;21.85;;;0.80;99.90;;;;;;4927400;29;20031;-78
2022/12/04 02:29:34;;;;;;;39.90;20.25;;;0.80;99.90;;;;;;4919691;29;20044;-79
2022/12/04 02:32:08;;;;;;;49.70;21.98;;;0.80;99.90;;;;;;4943977;28;20146;-78
2022/12/04 02:34:42;;;;;;;45.78;20.25;;;0.80;99.90;;;;;;4944312;29;20036;-79
2022/12/04 02:37:17;;;;;;;46.08;20.70;;;0.80;99.90;;;;;;4912515;29;20492;-79
2022/12/04 02:39:49;;;;;;;40.15;20.45;;;0.80;99.90;;;;;;4938366;29;20036;-79
2022/12/04 02:42:23;;;;;;;46.50;24.10;;;0.70;99.90;;;;;;4926518;29;20042;-78
2022/12/04 02:44:52;;;;;;;40.17;19.52;;;0.70;99.90;;;;;;4927622;29;20035;-78
2022/12/04 02:47:20;;;;;;;43.67;24.25;;;0.60;99.90;;;;;;4926207;29;20087;-79
2022/12/04 02:49:57;;;;;;;40.47;18.88;;;0.60;99.90;;;;;;4926564;28;20115;-78
2022/12/04 02:52:28;;;;;;;39.95;19.08;;;0.60;99.90;;;;;;4912628;29;20043;-79
2022/12/04 02:54:56;;;;;;;37.10;18.35;;;0.60;99.90;;;;;;4911365;29;20031;-79
2022/12/04 02:57:24;;;;;;;35.13;18.30;;;0.60;99.90;;;;;;4926868;29;20467;-78
2022/12/04 02:59:50;;;;;;;39.13;21.30;;;0.60;99.90;;;;;;4928512;29;20127;-79
2022/12/04 03:02:32;;;;;;;44.83;20.45;;;0.60;99.90;;;;;;4911472;29;20131;-79
2022/12/04 03:04:59;;;;;;;46.88;21.48;;;0.60;99.90;;;;;;4927244;29;20035;-79
2022/12/04 03:07:29;;;;;;;46.15;22.52;;;0.50;99.90;;;;;;4923507;29;20842;-79
2022/12/04 03:09:58;;;;;;;43.85;19.38;;;0.50;99.90;;;;;;4917889;29;20463;-79
2022/12/04 03:12:35;;;;;;;46.28;21.55;;;0.50;99.90;;;;;;4936696;28;20036;-79
2022/12/04 03:15:17;;;;;;;38.83;18.92;;;0.50;99.90;;;;;;4927943;29;20039;-79
2022/12/04 03:17:49;;;;;;;38.70;19.75;;;0.50;99.90;;;;;;4926376;29;20039;-79
2022/12/04 03:20:15;;;;;;;39.95;18.65;;;0.50;99.90;;;;;;4942556;29;20346;-79
2022/12/04 03:22:42;;;;;;;44.42;19.73;;;0.50;99.90;;;;;;4895616;29;20038;-79
2022/12/04 03:25:07;;;;;;;42.20;18.25;;;0.50;99.90;;;;;;4927851;29;20055;-79
2022/12/04 03:27:53;;;;;;;37.67;19.20;;;0.50;99.90;;;;;;4926589;29;20036;-80
2022/12/04 03:30:20;;;;;;;42.45;19.33;;;0.50;99.90;;;;;;4912476;29;20079;-79
2022/12/04 03:32:55;;;;;;;40.08;19.88;;;0.50;99.90;;;;;;4927593;29;20044;-79
2022/12/04 03:35:24;;;;;;;35.70;18.55;;;0.50;99.90;;;;;;4943510;29;20028;-79
2022/12/04 03:37:55;;;;;;;38.92;19.15;;;0.50;99.90;;;;;;4924136;29;20090;-79
2022/12/04 03:40:22;;;;;;;34.85;16.75;;;0.50;99.90;;;;;;4930352;29;20040;-79
2022/12/04 03:42:55;;;;;;;38.20;17.75;;;0.50;99.90;;;;;;4942812;29;20035;-79
2022/12/04 03:45:28;;;;;;;37.13;17.92;;;0.50;99.90;;;;;;4896116;29;20028;-79
2022/12/04 03:47:58;;;;;;;36.53;18.70;;;0.50;99.90;;;;;;4912273;28;20040;-77
2022/12/04 03:50:46;;;;;;;41.70;20.52;;;0.50;99.90;;;;;;4943722;29;20047;-77
2022/12/04 03:53:29;;;;;;;37.60;19.20;;;0.50;99.90;;;;;;4924262;29;20118;-77
2022/12/04 03:56:06;;;;;;;35.08;18.05;;;0.50;99.90;;;;;;4911268;29;20641;-77
2022/12/04 03:58:32;;;;;;;36.03;16.85;;;0.50;99.90;;;;;;4926457;29;20155;-77
2022/12/04 04:00:58;;;;;;;36.08;18.20;;;0.40;99.90;;;;;;4927387;28;20055;-78
2022/12/04 04:03:25;;;;;;;36.97;17.75;;;0.40;99.90;;;;;;4925126;28;20055;-78
2022/12/04 04:05:53;;;;;;;35.30;17.92;;;0.40;99.90;;;;;;4943214;29;20027;-78
2022/12/04 04:08:25;;;;;;;32.47;16.83;;;0.50;99.90;;;;;;4923999;29;20385;-78
2022/12/04 04:10:55;;;;;;;32.88;17.38;;;0.40;99.90;;;;;;4910903;29;20032;-78
2022/12/04 04:24:37;;;;;;;31.77;15.20;;;0.50;99.90;;;;;;4927964;29;20035;-78
2022/12/04 04:27:02;;;;;;;30.65;15.93;;;0.50;99.90;;;;;;4943651;28;20075;-77
2022/12/04 04:29:28;;;;;;;31.83;15.38;;;0.40;99.90;;;;;;4929124;29;20024;-78
2022/12/04 04:32:02;;;;;;;29.88;14.40;;;0.40;99.90;;;;;;4911402;29;20110;-77
2022/12/04 04:34:30;;;;;;;31.33;13.70;;;0.30;99.90;;;;;;4927034;29;20029;-78
2022/12/04 04:37:13;;;;;;;32.92;15.60;;;0.30;99.90;;;;;;4930098;28;20027;-78
2022/12/04 04:39:47;;;;;;;27.75;14.98;;;0.30;99.90;;;;;;4917900;29;20115;-78
2022/12/04 04:42:23;;;;;;;33.25;15.93;;;0.30;99.90;;;;;;4926694;29;20035;-78
2022/12/04 04:44:57;;;;;;;33.90;15.75;;;0.30;99.90;;;;;;4897474;29;20036;-78
2022/12/04 04:47:44;;;;;;;30.27;14.20;;;0.30;99.90;;;;;;4921119;29;20491;-77
2022/12/04 04:50:10;;;;;;;29.30;15.35;;;0.30;99.90;;;;;;4902461;29;20091;-77
2022/12/04 04:52:37;;;;;;;32.38;15.85;;;0.30;99.90;;;;;;4912638;29;20138;-77
2022/12/04 04:55:03;;;;;;;30.98;15.38;;;0.40;99.90;;;;;;4924081;29;20031;-78
2022/12/04 04:57:29;;;;;;;30.02;15.48;;;0.30;99.90;;;;;;4924253;29;20024;-78
2022/12/04 04:59:55;;;;;;;31.48;17.08;;;0.40;99.90;;;;;;4942022;29;20039;-78
2022/12/04 05:02:20;;;;;;;29.17;14.73;;;0.30;99.90;;;;;;4910833;29;20369;-78
2022/12/04 05:04:47;;;;;;;30.08;14.13;;;0.40;99.90;;;;;;4925116;29;20036;-77
2022/12/04 05:07:12;;;;;;;32.00;14.52;;;0.40;99.90;;;;;;4910338;29;20895;-78
2022/12/04 05:09:38;;;;;;;29.73;14.07;;;0.40;99.90;;;;;;4910345;29;20046;-78
2022/12/04 05:12:03;;;;;;;28.80;14.15;;;0.40;99.90;;;;;;4925673;29;20039;-77
2022/12/04 05:14:29;;;;;;;28.58;15.07;;;0.40;99.90;;;;;;4942022;28;20062;-77
2022/12/04 05:16:54;;;;;;;35.35;15.93;;;0.40;99.90;;;;;;4913468;29;20046;-77
2022/12/04 05:22:04;;;;;;;33.60;17.38;;;0.40;99.90;;;;;;4943226;28;20040;-78
2022/12/04 05:24:30;;;;;;;30.10;15.75;;;0.40;99.90;;;;;;4945779;29;20603;-78
2022/12/04 05:26:55;;;;;;;31.73;16.48;;;0.40;99.90;;;;;;4929466;29;20038;-78
2022/12/04 05:29:21;;;;;;;28.42;13.82;;;0.40;99.90;;;;;;4930948;29;20046;-78
2022/12/04 05:31:46;;;;;;;31.00;16.83;;;0.40;99.90;;;;;;4930253;29;20031;-77
2022/12/04 05:34:12;;;;;;;31.30;16.42;;;0.40;99.90;;;;;;4930872;29;20496;-77
2022/12/04 05:36:38;;;;;;;32.00;15.00;;;0.40;99.90;;;;;;4928931;29;20505;-77
2022/12/04 05:39:03;;;;;;;26.38;14.35;;;0.40;99.90;;;;;;4930861;29;20115;-78
2022/12/04 05:41:29;;;;;;;32.92;15.88;;;0.40;99.90;;;;;;4928180;29;20062;-77
2022/12/04 05:43:54;;;;;;;31.90;16.13;;;0.40;99.90;;;;;;4929252;29;20119;-77
2022/12/04 05:46:20;;;;;;;33.70;16.67;;;0.40;99.90;;;;;;4928403;29;20098;-77
2022/12/04 05:48:45;;;;;;;31.58;16.88;;;0.50;99.90;;;;;;4909532;29;20032;-77
2022/12/04 05:51:11;;;;;;;32.55;15.95;;;0.40;99.90;;;;;;4929222;29;20052;-77
2022/12/04 05:53:37;;;;;;;27.10;14.15;;;0.40;99.90;;;;;;4944294;28;21097;-78
2022/12/04 05:56:04;;;;;;;32.50;15.52;;;0.50;99.90;;;;;;4928623;29;20035;-77
2022/12/04 05:58:29;;;;;;;31.27;15.13;;;0.50;99.90;;;;;;4924797;29;20494;-77
2022/12/04 06:00:55;;;;;;;33.03;16.50;;;0.50;99.90;;;;;;4929095;29;20034;-77
2022/12/04 06:03:20;;;;;;;32.28;15.98;;;0.50;99.90;;;;;;4895366;29;20024;-76
2022/12/04 06:05:46;;;;;;;30.38;14.50;;;0.50;99.90;;;;;;4930581;29;20044;-77
2022/12/04 06:08:13;;;;;;;30.75;15.48;;;0.50;99.90;;;;;;4921156;29;20040;-77
2022/12/04 06:10:38;;;;;;;32.25;15.68;;;0.60;99.90;;;;;;4931237;29;20709;-77
2022/12/04 06:13:05;;;;;;;29.45;14.88;;;0.60;99.90;;;;;;4929313;29;20118;-77
2022/12/04 06:15:31;;;;;;;28.83;14.80;;;0.60;99.90;;;;;;4914621;29;20056;-78
2022/12/04 06:17:56;;;;;;;30.77;14.82;;;0.60;99.90;;;;;;4913067;29;20536;-77
2022/12/04 06:20:22;;;;;;;25.83;12.02;;;0.70;99.90;;;;;;4917717;29;20055;-77
2022/12/04 06:22:47;;;;;;;30.33;14.88;;;0.70;99.90;;;;;;4929147;29;20064;-77
2022/12/04 06:25:13;;;;;;;26.88;15.02;;;0.70;99.90;;;;;;4929426;29;20388;-77
2022/12/04 06:27:38;;;;;;;28.95;15.20;;;0.70;99.90;;;;;;4912092;29;20038;-77
2022/12/04 06:30:04;;;;;;;26.52;14.38;;;0.70;99.90;;;;;;4915546;29;20434;-77
2022/12/04 06:32:30;;;;;;;26.33;13.20;;;0.70;99.90;;;;;;4929916;29;20051;-78
2022/12/04 06:34:55;;;;;;;24.85;14.77;;;0.60;99.90;;;;;;4898541;29;20035;-78
2022/12/04 06:37:22;;;;;;;26.55;14.32;;;0.70;99.90;;;;;;4913631;29;20036;-78
2022/12/04 06:39:48;;;;;;;26.30;14.02;;;0.70;99.90;;;;;;4915803;29;20051;-78
2022/12/04 06:42:14;;;;;;;14.73;7.72;;;0.80;99.90;;;;;;4930451;29;20063;-78
2022/12/04 06:44:39;;;;;;;19.92;9.93;;;0.80;99.90;;;;;;4932563;29;20047;-78
2022/12/04 06:47:05;;;;;;;20.90;11.90;;;0.80;99.90;;;;;;4928310;29;20043;-79
2022/12/04 06:49:30;;;;;;;24.65;12.98;;;0.80;99.90;;;;;;4924240;29;20036;-78
2022/12/04 06:51:56;;;;;;;24.70;12.90;;;0.80;99.90;;;;;;4925727;29;20032;-78
2022/12/04 06:54:21;;;;;;;22.13;12.38;;;0.80;99.90;;;;;;4928730;29;20040;-78
2022/12/04 06:56:47;;;;;;;20.63;11.93;;;0.80;99.90;;;;;;4912550;29;20067;-78
2022/12/04 06:59:13;;;;;;;22.02;11.88;;;0.90;99.90;;;;;;4923251;29;20044;-78
2022/12/04 07:01:38;;;;;;;22.95;11.68;;;0.80;99.90;;;;;;4912509;29;20024;-78
2022/12/04 07:04:04;;;;;;;24.23;13.48;;;0.80;99.90;;;;;;4922961;29;20047;-78
2022/12/04 07:06:39;;;;;;;18.75;10.77;;;0.90;99.90;;;;;;4907598;29;20135;-78
2022/12/04 07:09:06;;;;;;;22.52;13.25;;;0.90;99.90;;;;;;4908499;29;20039;-78
2022/12/04 07:11:32;;;;;;;25.80;12.48;;;0.90;99.90;;;;;;4925320;29;20048;-78
2022/12/04 07:13:57;;;;;;;22.25;12.25;;;0.90;99.90;;;;;;4925831;29;20102;-78
2022/12/04 07:16:24;;;;;;;21.65;11.68;;;0.90;99.90;;;;;;4944175;29;20028;-78
2022/12/04 07:18:50;;;;;;;19.63;12.55;;;0.90;99.90;;;;;;4912270;29;20448;-79
2022/12/04 07:21:17;;;;;;;19.35;12.13;;;0.80;99.90;;;;;;4928530;28;20046;-78
2022/12/04 07:23:44;;;;;;;19.67;11.35;;;0.70;99.90;;;;;;4916222;29;20035;-78
2022/12/04 07:26:13;;;;;;;22.48;13.27;;;0.80;99.90;;;;;;4918920;29;20107;-78
2022/12/04 07:28:38;;;;;;;19.40;11.73;;;0.80;99.90;;;;;;4942338;28;20053;-78
2022/12/04 07:31:08;;;;;;;19.27;12.70;;;0.80;99.90;;;;;;4911963;29;20036;-78
2022/12/04 07:33:34;;;;;;;21.23;12.25;;;0.80;99.90;;;;;;4927366;28;20032;-79
2022/12/04 07:36:00;;;;;;;19.38;11.00;;;0.80;99.90;;;;;;4911515;29;20092;-78
2022/12/04 07:38:26;;;;;;;20.15;11.40;;;0.80;99.90;;;;;;4912789;28;20042;-79
2022/12/04 07:40:55;;;;;;;22.55;13.20;;;0.80;99.90;;;;;;4914466;29;20044;-78
2022/12/04 07:43:20;;;;;;;21.40;11.57;;;0.80;99.90;;;;;;4931693;29;20054;-78
2022/12/04 07:45:46;;;;;;;20.30;11.98;;;0.80;99.90;;;;;;4909075;29;20160;-77
2022/12/04 07:48:11;;;;;;;20.17;11.70;;;0.80;99.90;;;;;;4945303;28;20050;-77
2022/12/04 07:50:37;;;;;;;26.30;11.95;;;0.90;99.90;;;;;;4910158;29;20522;-77
2022/12/04 07:53:03;;;;;;;23.38;11.75;;;0.90;99.90;;;;;;4916691;28;20047;-78
2022/12/04 07:55:28;;;;;;;20.15;11.05;;;0.90;99.90;;;;;;4931494;28;20042;-78
2022/12/04 07:57:54;;;;;;;21.30;12.35;;;0.90;99.90;;;;;;4913543;29;20031;-77
2022/12/04 08:00:21;;;;;;;21.48;11.25;;;0.90;99.90;;;;;;4931280;28;20031;-78
2022/12/04 08:02:46;;;;;;;21.15;13.43;;;0.90;99.90;;;;;;4943400;28;20044;-79
2022/12/04 08:05:12;;;;;;;22.08;11.93;;;1.00;99.90;;;;;;4915363;29;20050;-77
2022/12/04 08:07:37;;;;;;;21.80;12.10;;;1.00;99.90;;;;;;4898424;29;20046;-78
2022/12/04 08:10:03;;;;;;;19.17;9.52;;;1.00;99.90;;;;;;4919942;28;20081;-81
2022/12/04 08:12:31;;;;;;;22.02;11.95;;;1.00;99.90;;;;;;4912368;29;20542;-78
2022/12/04 08:14:57;;;;;;;18.65;11.30;;;1.00;99.90;;;;;;4945077;28;20039;-78
2022/12/04 08:17:23;;;;;;;21.88;11.43;;;1.00;99.90;;;;;;4916560;29;20090;-80
2022/12/04 08:19:48;;;;;;;24.30;12.02;;;1.00;99.90;;;;;;4926260;29;20460;-78
2022/12/04 08:22:14;;;;;;;16.20;8.85;;;1.10;99.90;;;;;;4929503;28;20032;-78
2022/12/04 08:24:40;;;;;;;22.50;12.02;;;1.10;99.90;;;;;;4898155;29;20541;-77
2022/12/04 08:27:05;;;;;;;20.45;12.40;;;1.10;99.90;;;;;;4926137;28;20462;-77
2022/12/04 08:29:31;;;;;;;19.42;10.75;;;1.10;99.90;;;;;;4913831;29;20843;-79
2022/12/04 08:31:57;;;;;;;24.65;12.18;;;1.10;99.90;;;;;;4915002;29;20039;-78
2022/12/04 08:34:22;;;;;;;21.40;11.75;;;1.10;99.90;;;;;;4932645;28;20110;-79
2022/12/04 08:36:48;;;;;;;21.50;11.88;;;1.20;99.90;;;;;;4912261;29;20036;-79
2022/12/04 08:39:13;;;;;;;21.55;12.05;;;1.20;99.90;;;;;;4930880;28;20032;-79
2022/12/04 08:41:39;;;;;;;19.88;11.82;;;1.20;99.90;;;;;;4896784;29;20035;-79
2022/12/04 08:44:05;;;;;;;20.70;11.50;;;1.20;99.90;;;;;;4928862;29;20036;-78
2022/12/04 08:46:30;;;;;;;22.23;11.45;;;1.20;99.90;;;;;;4929984;28;20039;-78
2022/12/04 08:48:56;;;;;;;20.33;10.98;;;1.20;99.90;;;;;;4914339;29;20042;-80
2022/12/04 08:51:24;;;;;;;23.33;11.48;;;1.30;99.90;;;;;;4915376;28;20047;-79
2022/12/04 08:53:54;;;;;;;24.10;11.48;;;1.30;99.90;;;;;;4920020;29;20556;-79
2022/12/04 08:56:20;;;;;;;19.83;10.95;;;1.30;99.90;;;;;;4917901;28;20689;-79
2022/12/04 08:58:45;;;;;;;20.58;11.23;;;1.30;99.90;;;;;;4917559;29;20036;-79
2022/12/04 09:01:12;;;;;;;15.82;8.45;;;1.30;99.90;;;;;;4932411;28;20681;-78
2022/12/04 09:03:38;;;;;;;20.73;11.82;;;1.30;99.90;;;;;;4944971;28;20035;-80
2022/12/04 09:06:04;;;;;;;21.20;10.88;;;1.30;99.90;;;;;;4931450;29;20411;-79
2022/12/04 09:08:29;;;;;;;21.17;12.25;;;1.30;99.90;;;;;;4935012;29;20032;-79
2022/12/04 09:11:01;;;;;;;22.05;11.98;;;1.40;99.90;;;;;;4921025;29;20116;-79
2022/12/04 09:13:26;;;;;;;17.92;9.95;;;1.40;99.90;;;;;;4932866;29;20472;-79
2022/12/04 09:15:52;;;;;;;22.55;12.52;;;1.40;99.90;;;;;;4930593;29;20027;-79
2022/12/04 09:18:17;;;;;;;18.38;10.82;;;1.40;99.90;;;;;;4933935;28;20126;-80
2022/12/04 09:20:43;;;;;;;21.45;11.73;;;1.50;99.90;;;;;;4917528;29;20129;-79
2022/12/04 09:23:08;;;;;;;21.60;11.23;;;1.50;99.90;;;;;;4919938;29;20032;-79
2022/12/04 09:25:35;;;;;;;23.25;14.27;;;1.50;99.90;;;;;;4920036;29;20036;-79
2022/12/04 09:28:01;;;;;;;24.08;12.88;;;1.50;99.90;;;;;;4948442;28;20027;-79
2022/12/04 09:30:26;;;;;;;22.58;12.35;;;1.50;99.90;;;;;;4903094;29;20090;-79
2022/12/04 09:32:52;;;;;;;22.67;12.60;;;1.60;99.90;;;;;;4919104;29;20445;-79
2022/12/04 09:35:17;;;;;;;23.42;13.18;;;1.70;99.90;;;;;;4921166;29;20519;-79
2022/12/04 09:37:43;;;;;;;22.25;11.75;;;1.60;99.90;;;;;;4917721;28;20099;-79
2022/12/04 09:40:17;;;;;;;25.20;14.30;;;1.60;99.90;;;;;;4903974;29;20159;-79
2022/12/04 09:42:46;;;;;;;26.95;14.13;;;1.70;99.90;;;;;;4936070;29;20090;-79
2022/12/04 09:45:17;;;;;;;22.70;12.88;;;1.70;99.90;;;;;;4933920;28;20400;-79
2022/12/04 09:47:44;;;;;;;23.52;13.32;;;1.70;99.90;;;;;;4915404;29;20043;-79
2022/12/04 09:50:19;;;;;;;27.08;13.00;;;1.70;99.90;;;;;;4932174;28;20031;-79
2022/12/04 09:52:49;;;;;;;28.65;14.23;;;1.70;99.90;;;;;;4919488;29;20408;-79
2022/12/04 09:55:36;;;;;;;20.92;11.98;;;1.80;99.90;;;;;;4933812;28;20384;-79
2022/12/04 09:58:04;;;;;;;23.60;13.82;;;1.70;99.90;;;;;;4920566;29;20093;-78
2022/12/04 10:00:30;;;;;;;26.38;14.05;;;1.80;99.90;;;;;;4934176;28;20028;-80
2022/12/04 10:03:04;;;;;;;23.38;12.40;;;1.80;99.90;;;;;;4925732;29;20488;-79
2022/12/04 10:06:01;;;;;;;21.55;11.90;;;1.80;99.90;;;;;;4940597;28;20044;-79
2022/12/04 10:08:30;;;;;;;;;;;1.90;99.90;;;;;;4949064;28;20050;-78
2022/12/04 10:11:02;;;;;;;29.90;15.75;;;1.90;99.90;;;;;;4931715;29;19917;-79
2022/12/04 10:13:59;;;;;;;26.48;14.52;;;1.90;99.90;;;;;;4947149;28;20469;-78
2022/12/04 10:17:02;;;;;;;25.30;14.05;;;1.90;99.90;;;;;;4932276;29;20042;-79
2022/12/04 10:19:32;;;;;;;25.70;13.50;;;1.90;99.90;;;;;;4946010;28;20342;-81
2022/12/04 10:22:31;;;;;;;22.88;12.23;;;2.00;99.90;;;;;;4946587;28;20492;-78
2022/12/04 10:25:07;;;;;;;24.63;13.00;;;1.90;99.90;;;;;;4929906;29;20114;-77
2022/12/04 10:27:42;;;;;;;20.65;11.82;;;2.00;99.90;;;;;;4913703;29;20020;-78
2022/12/04 10:30:18;;;;;;;27.30;12.13;;;2.00;99.90;;;;;;4944846;28;20032;-78
2022/12/04 10:32:44;;;;;;;23.45;13.02;;;2.00;99.90;;;;;;4927471;29;20076;-78
2022/12/04 10:35:29;;;;;;;27.65;15.00;;;2.00;99.90;;;;;;4899049;29;20122;-77
2022/12/04 10:37:57;;;;;;;23.27;14.05;;;2.10;99.90;;;;;;4946380;28;20491;-77
2022/12/04 10:40:35;;;;;;;22.50;10.10;;;2.10;99.90;;;;;;4925664;29;20399;-78
2022/12/04 10:43:41;;;;;;;24.20;13.57;;;2.10;99.90;;;;;;4897997;29;20429;-78
2022/12/04 10:46:23;;;;;;;25.77;13.90;;;2.10;99.90;;;;;;4913635;29;20444;-78
2022/12/04 10:48:51;;;;;;;23.38;13.27;;;2.10;99.90;;;;;;4909862;28;20040;-78
2022/12/04 10:51:20;;;;;;;24.20;15.07;;;2.10;99.90;;;;;;4913231;29;20174;-78
2022/12/04 10:53:48;;;;;;;23.52;13.85;;;2.10;99.90;;;;;;4928077;28;20130;-78
2022/12/04 10:56:13;;;;;;;24.33;13.82;;;2.20;99.90;;;;;;4930318;29;20736;-77
2022/12/04 10:58:41;;;;;;;28.20;15.88;;;2.20;99.90;;;;;;4947257;28;20031;-78
2022/12/04 11:01:11;;;;;;;25.85;14.35;;;2.20;99.90;;;;;;4945836;28;20051;-78
2022/12/04 11:03:37;;;;;;;27.40;14.52;;;2.20;99.90;;;;;;4899892;29;20567;-78
2022/12/04 11:06:07;;;;;;;29.23;17.40;;;2.20;99.90;;;;;;4946774;28;20031;-78
2022/12/04 11:08:39;;;;;;;23.52;12.32;;;2.20;99.90;;;;;;4916837;29;20032;-78
2022/12/04 11:11:10;;;;;;;24.35;13.05;;;2.30;99.90;;;;;;4947958;28;20417;-78
2022/12/04 11:13:35;;;;;;;27.40;13.18;;;2.30;99.90;;;;;;4912753;29;20035;-78
2022/12/04 11:16:02;;;;;;;25.73;15.45;;;2.30;99.90;;;;;;4933250;29;20032;-77
2022/12/04 11:18:34;;;;;;;28.27;14.50;;;2.40;99.90;;;;;;4914513;29;20039;-78
2022/12/04 11:21:05;;;;;;;33.03;15.48;;;2.40;99.90;;;;;;4918862;29;20555;-78
2022/12/04 11:23:44;;;;;;;29.30;16.65;;;2.40;99.90;;;;;;4915427;29;20032;-78
2022/12/04 11:26:09;;;;;;;25.88;15.32;;;2.40;99.90;;;;;;4929864;29;20665;-78
2022/12/04 11:28:39;;;;;;;29.42;15.73;;;2.50;99.90;;;;;;4916464;28;20043;-78
2022/12/04 11:31:06;;;;;;;27.35;14.60;;;2.40;99.90;;;;;;4930375;28;20034;-78
2022/12/04 11:33:37;;;;;;;25.67;15.35;;;2.50;99.90;;;;;;4912777;28;20043;-78
2022/12/04 11:36:14;;;;;;;27.35;14.75;;;2.50;99.90;;;;;;4919550;29;20761;-78
2022/12/04 11:38:39;;;;;;;29.02;13.52;;;2.50;99.90;;;;;;4945927;28;20027;-78
2022/12/04 11:41:05;;;;;;;30.20;15.88;;;2.50;99.90;;;;;;4892896;28;20166;-78
2022/12/04 11:43:32;;;;;;;28.20;15.95;;;2.60;99.90;;;;;;4927489;29;20376;-78
2022/12/04 11:46:05;;;;;;;27.83;14.65;;;2.60;99.90;;;;;;4930328;28;20480;-78
2022/12/04 11:48:39;;;;;;;30.20;15.73;;;2.60;99.90;;;;;;4948645;28;20560;-78
2022/12/04 11:51:30;;;;;;;27.17;13.50;;;2.60;99.90;;;;;;4910020;29;20617;-77
2022/12/04 11:54:30;;;;;;;26.67;13.85;;;2.60;99.90;;;;;;4946563;28;20035;-78
2022/12/04 11:57:37;;;;;;;28.90;15.25;;;2.60;99.90;;;;;;4580650;28;10000984;-78
2022/12/04 12:00:20;;;;;;;29.73;15.77;;;2.60;99.90;;;;;;4861766;29;20033;-78
2022/12/04 12:03:10;;;;;;;25.85;13.82;;;2.70;99.90;;;;;;4881656;29;20029;-78
2022/12/04 12:05:46;;;;;;;26.88;13.18;;;2.70;99.90;;;;;;4909642;28;20488;-78
2022/12/04 12:08:36;;;;;;;29.90;15.93;;;2.70;99.90;;;;;;4926254;29;20665;-78
2022/12/04 12:11:13;;;;;;;24.60;13.10;;;2.80;99.90;;;;;;4945193;28;20035;-78
2022/12/04 12:14:01;;;;;;;29.27;15.32;;;2.80;99.90;;;;;;4927159;28;20043;-78
2022/12/04 12:16:54;;;;;;;26.45;14.60;;;2.80;99.90;;;;;;4944293;28;20031;-78
2022/12/04 12:19:31;;;;;;;28.40;14.60;;;2.80;99.90;;;;;;4948408;28;20035;-78
2022/12/04 12:22:25;;;;;;;30.00;15.70;;;2.80;99.90;;;;;;4931931;28;20499;-79
2022/12/04 12:25:15;;;;;;;27.45;14.93;;;2.90;99.90;;;;;;4922857;28;20094;-78
2022/12/04 12:28:12;;;;;;;28.70;16.13;;;2.90;99.90;;;;;;4913442;29;20023;-78
2022/12/04 12:31:00;;;;;;;30.13;14.55;;;2.90;99.90;;;;;;4948150;28;20110;-78
2022/12/04 12:33:33;;;;;;;32.00;15.68;;;2.80;99.90;;;;;;4937682;29;20099;-78
2022/12/04 12:36:09;;;;;;;26.75;14.77;;;2.80;99.90;;;;;;4922090;28;20079;-78
2022/12/04 12:38:47;;;;;;;;;;;2.80;99.90;;;;;;4919709;29;20046;-79
2022/12/04 12:41:14;;;;;;;29.98;15.27;;;2.90;99.90;;;;;;4949912;28;19930;-78
2022/12/04 12:43:40;;;;;;;26.70;15.50;;;2.80;99.90;;;;;;4899742;29;20086;-79
2022/12/04 12:46:10;;;;;;;25.67;14.95;;;2.90;99.90;;;;;;4931756;29;20044;-78
2022/12/04 12:48:39;;;;;;;26.23;14.25;;;2.90;99.90;;;;;;4916145;29;20391;-78
2022/12/04 12:51:23;;;;;;;28.42;15.07;;;2.80;99.90;;;;;;4933976;29;20118;-78
2022/12/04 12:53:50;;;;;;;25.55;14.35;;;2.90;99.90;;;;;;4933439;28;20028;-78
2022/12/04 12:56:15;;;;;;;29.00;15.63;;;2.90;99.90;;;;;;4933530;29;20032;-78
2022/12/04 12:58:44;;;;;;;28.90;14.82;;;2.80;99.90;;;;;;4915720;29;20408;-79
2022/12/04 13:01:14;;;;;;;25.88;14.40;;;2.90;99.90;;;;;;4902350;29;20042;-78
2022/12/04 13:03:45;;;;;;;26.75;13.40;;;2.80;99.90;;;;;;4943224;28;20032;-78
2022/12/04 13:06:14;;;;;;;26.42;14.02;;;2.90;99.90;;;;;;5019157;23;20043;-78